Hovedside
METAR-TAF:

METAR-TAF

Lufthavner :

Son Sant Joan lufthavn

Palma de Mallorca, Spania

breddegrad: 39-33N, lengdegrad: 002-44E, høyde over havet: 4 m

Gjeldene værobservasjon

Denne rapporten ble laget for 19 minutter siden, klokken 14:30 UTC
Vind 11 kt fra Vest-sørvest
Temperatur 15°C
Luftfuktighet 72%
Trykk 1021 hPa
Sikt 10 km eller mer
Få skyer i en høyde av 2200 ft

METAR: LEPA 271430Z 24011KT 9999 FEW022 15/10 Q1021 NOSIG

Tid: 15:49 (14:49 UTC)

Varsel

Denne rapporten ble laget for 3 timer og 49 minutter siden, klokken 11:00 UTC
Varsel gyldig fra 27. klokken 12 UTC til 28. klokken 12 UTC
Vind 12 kt fra Vest-sørvest
Sikt 10 km eller mer
Få skyer i en høyde av 3000 ft
Midlertidig
fra 28. klokken 04 UTC til 28. klokken 09 UTC
Vind 4 kt fra skiftende retning
Sannsynlighet 30% :
Midlertidig
fra 28. klokken 06 UTC til 28. klokken 08 UTC
Sikt: 3000 m
tåkebanker

TAF: LEPA 271100Z 2712/2812 24012KT 9999 FEW030 TX16/2712Z TN09/2806Z TEMPO 2804/2809 VRB04KT PROB30 TEMPO 2806/2808 3000 BCFG

Værobservasjoner og værvarsel for over 4000 flyplasser (METAR- og TAF-rapporter).

Tilgjengelige stasjoner er representert av de røde og gule prikkene på kartet.

Hold musepekeren over prikken for å se navnet på stasjonen.

Klikk så for å se værobservasjoner og -varsler.

For å forandre kartet kan du klikke på den grønne knappen med svart kryss for å zoome inn, på den grønne knappen med strek for å zoome ut, eller på de grønne pilene for å se tilstøtende kart.


METAR-TAF: